Time;durP1;ratioP1;P1;durP2;ratioP2;P2;SDS_P1;SDS_P2;PMS_P1;PMS_P2;Temp;Humidity;BMP_temperature;BMP_pressure;BME280_temperature;BME280_humidity;BME280_pressure;Samples;Min_cycle;Max_cycle;Signal;HPM_P1;HPM_P2
2023/07/21 00:00:00;;;;;;;3.00;2.80;;;;;;;15.24;100.00;98549.05;136106;1275;25949;-79
2023/07/21 00:03:03;;;;;;;4.10;2.70;;;;;;;15.21;100.00;98547.33;136385;1275;22475;-79
2023/07/21 00:06:07;;;;;;;4.00;2.60;;;;;;;15.20;100.00;98543.13;136866;1275;22555;-78
2023/07/21 00:09:12;;;;;;;5.90;3.10;;;;;;;15.19;100.00;98544.71;137097;1274;22885;-79
2023/07/21 00:12:15;;;;;;;5.30;2.80;;;;;;;15.16;100.00;98544.41;137151;1275;22558;-79
2023/07/21 00:15:17;;;;;;;4.50;3.00;;;;;;;15.10;100.00;98541.15;136903;1274;22609;-79
2023/07/21 00:18:20;;;;;;;5.60;3.50;;;;;;;15.07;100.00;98542.59;136796;1275;22573;-79
2023/07/21 00:21:23;;;;;;;3.20;2.90;;;;;;;15.05;100.00;98545.75;137050;1275;22568;-78
2023/07/21 00:24:25;;;;;;;2.90;2.70;;;;;;;15.03;100.00;98545.25;136993;1274;23015;-78
2023/07/21 00:27:28;;;;;;;3.20;2.90;;;;;;;15.04;100.00;98543.84;136821;1274;22575;-78
2023/07/21 00:30:30;;;;;;;3.60;3.30;;;;;;;15.04;100.00;98540.69;136725;1275;22642;-78
2023/07/21 00:33:33;;;;;;;4.00;3.30;;;;;;;15.03;100.00;98538.25;136010;1275;22779;-79
2023/07/21 00:36:41;;;;;;;3.10;2.90;;;;;;;15.01;100.00;98538.62;135668;1275;22540;-80
2023/07/21 00:39:44;;;;;;;3.10;2.90;;;;;;;14.98;100.00;98539.88;135663;1275;22536;-78
2023/07/21 00:42:47;;;;;;;3.60;2.80;;;;;;;14.94;100.00;98536.05;135558;1274;22532;-78
2023/07/21 00:45:49;;;;;;;4.90;3.10;;;;;;;14.90;100.00;98531.90;135596;1275;22537;-79
2023/07/21 00:48:52;;;;;;;4.70;3.20;;;;;;;14.85;100.00;98528.63;135555;1275;22581;-79
2023/07/21 00:51:54;;;;;;;3.50;2.80;;;;;;;14.83;100.00;98525.50;135557;1274;22549;-79
2023/07/21 00:54:57;;;;;;;6.40;3.10;;;;;;;14.85;100.00;98523.55;135619;1275;22537;-79
2023/07/21 00:57:59;;;;;;;5.80;2.90;;;;;;;14.87;100.00;98517.39;135498;1274;22521;-79
2023/07/21 01:01:01;;;;;;;3.20;3.00;;;;;;;14.88;100.00;98519.13;135606;1274;22668;-80
2023/07/21 01:04:04;;;;;;;4.00;2.90;;;;;;;14.87;100.00;98518.09;135650;1275;22534;-80
2023/07/21 01:07:08;;;;;;;5.30;3.20;;;;;;;14.83;100.00;98517.09;135613;1275;22542;-79
2023/07/21 01:10:13;;;;;;;7.90;3.80;;;;;;;14.79;100.00;98516.60;135668;1275;22520;-80
2023/07/21 01:13:15;;;;;;;4.10;3.30;;;;;;;14.79;100.00;98518.53;135583;1274;22534;-80
2023/07/21 01:16:18;;;;;;;3.20;2.90;;;;;;;14.80;100.00;98519.91;135737;1274;22636;-80
2023/07/21 01:19:20;;;;;;;3.60;3.30;;;;;;;14.81;100.00;98523.58;135940;1275;22557;-84
2023/07/21 01:22:24;;;;;;;299.20;25.20;;;;;;;14.77;100.00;98522.92;135862;1275;22588;-81
2023/07/21 01:25:27;;;;;;;11.60;3.80;;;;;;;14.70;100.00;98523.85;135937;1274;22650;-81
2023/07/21 01:28:30;;;;;;;4.70;3.60;;;;;;;14.65;100.00;98521.78;135858;1275;22537;-81
2023/07/21 01:31:32;;;;;;;3.60;3.30;;;;;;;14.63;100.00;98522.50;136031;1272;22501;-80
2023/07/21 01:34:35;;;;;;;5.20;3.10;;;;;;;14.63;100.00;98525.13;135683;1274;25303;-80
2023/07/21 01:37:38;;;;;;;3.60;3.30;;;;;;;14.65;100.00;98523.54;135591;1274;22545;-80
2023/07/21 01:40:40;;;;;;;7.10;3.00;;;;;;;14.62;100.00;98519.02;135654;1275;24294;-82
2023/07/21 01:43:44;;;;;;;3.90;3.10;;;;;;;14.57;100.00;98519.94;135676;1275;24179;-82
2023/07/21 01:46:47;;;;;;;3.40;3.10;;;;;;;14.54;100.00;98521.89;135598;1275;22533;-80
2023/07/21 01:49:50;;;;;;;4.30;2.80;;;;;;;14.52;100.00;98518.05;135547;1275;22529;-81
2023/07/21 01:52:53;;;;;;;9.00;3.10;;;;;;;14.50;100.00;98518.95;135577;1275;23030;-80
2023/07/21 01:55:55;;;;;;;76.20;6.50;;;;;;;14.49;100.00;98521.94;135488;1275;22637;-80
2023/07/21 01:58:58;;;;;;;3.90;3.20;;;;;;;14.49;100.00;98521.41;135544;1274;22530;-81
2023/07/21 02:02:00;;;;;;;3.60;3.20;;;;;;;14.51;100.00;98515.79;135549;1275;24199;-80
2023/07/21 02:05:05;;;;;;;3.80;3.30;;;;;;;14.50;100.00;98517.55;135521;1275;22952;-80
2023/07/21 02:08:09;;;;;;;5.50;2.90;;;;;;;14.49;100.00;98514.23;135438;1275;24288;-80
2023/07/21 02:11:12;;;;;;;3.50;3.20;;;;;;;14.48;100.00;98507.59;135537;1275;22637;-80
2023/07/21 02:14:14;;;;;;;3.70;2.90;;;;;;;14.45;100.00;98509.02;135705;1275;22648;-81
2023/07/21 02:17:17;;;;;;;3.30;3.00;;;;;;;14.42;100.00;98507.63;135704;1275;22547;-82
2023/07/21 02:20:20;;;;;;;3.80;3.10;;;;;;;14.35;100.00;98503.64;135885;1275;22540;-83
2023/07/21 02:23:23;;;;;;;3.20;2.90;;;;;;;14.33;100.00;98501.73;135838;1275;22542;-80
2023/07/21 02:26:25;;;;;;;223.90;17.00;;;;;;;14.32;100.00;98503.85;135532;1251;22535;-78
2023/07/21 02:29:28;;;;;;;14.30;3.60;;;;;;;14.32;100.00;98500.87;135383;1275;22637;-77
2023/07/21 02:32:30;;;;;;;39.30;5.60;;;;;;;14.30;100.00;98506.84;135433;1263;22598;-81
2023/07/21 02:35:33;;;;;;;97.10;9.50;;;;;;;14.30;100.00;98508.23;135480;1275;22588;-78
2023/07/21 02:38:35;;;;;;;13.40;3.80;;;;;;;14.27;100.00;98511.23;135491;1274;22892;-79
2023/07/21 02:41:38;;;;;;;12.20;3.40;;;;;;;14.23;100.00;98520.38;135462;1275;22560;-79
2023/07/21 02:44:40;;;;;;;3.20;2.90;;;;;;;14.19;100.00;98522.33;135588;1275;22614;-81
2023/07/21 02:47:46;;;;;;;4.00;3.30;;;;;;;14.18;100.00;98526.02;135659;1275;22488;-82
2023/07/21 02:50:48;;;;;;;15.80;3.50;;;;;;;14.18;100.00;98522.69;135686;1275;24173;-81
2023/07/21 02:53:52;;;;;;;46.80;10.10;;;;;;;14.23;100.00;98521.61;135851;1275;22614;-80
2023/07/21 02:56:54;;;;;;;67.00;7.40;;;;;;;14.70;100.00;98522.10;135834;1275;22540;-81
2023/07/21 02:59:59;;;;;;;;;;;;;;;14.68;100.00;98518.08;135800;1274;22519;-81
2023/07/21 03:03:03;;;;;;;5.60;3.00;;;;;;;14.56;100.00;98515.04;135900;1273;22558;-81
2023/07/21 03:06:06;;;;;;;5.60;3.30;;;;;;;14.49;100.00;98525.09;135644;1274;22630;-81
2023/07/21 03:09:08;;;;;;;5.80;3.40;;;;;;;14.46;100.00;98529.31;135762;1274;22625;-81
2023/07/21 03:12:11;;;;;;;8.50;3.60;;;;;;;14.49;100.00;98531.91;136032;1275;22676;-81
2023/07/21 03:15:14;;;;;;;7.10;3.60;;;;;;;14.53;100.00;98534.67;135557;1275;22599;-81
2023/07/21 03:18:17;;;;;;;38.60;5.60;;;;;;;14.74;100.00;98528.54;135901;1275;24587;-80
2023/07/21 03:21:19;;;;;;;60.80;7.50;;;;;;;15.33;100.00;98535.79;135298;1274;22543;-79
2023/07/21 03:24:22;;;;;;;26.30;5.50;;;;;;;15.26;100.00;98539.38;135379;1275;25201;-80
2023/07/21 03:27:24;;;;;;;3.90;3.30;;;;;;;15.10;100.00;98533.60;135294;1275;23026;-81
2023/07/21 03:30:27;;;;;;;4.50;2.90;;;;;;;14.96;100.00;98534.29;135307;1266;22573;-81
2023/07/21 03:33:29;;;;;;;77.90;9.10;;;;;;;14.89;100.00;98531.04;135274;1275;22579;-81
2023/07/21 03:36:32;;;;;;;35.20;4.50;;;;;;;14.87;100.00;98532.81;135314;1275;22873;-83
2023/07/21 03:39:34;;;;;;;127.00;11.70;;;;;;;14.88;100.00;98531.75;135860;1275;22599;-81
2023/07/21 03:42:37;;;;;;;14.00;4.30;;;;;;;14.90;100.00;98525.60;135440;1274;23295;-81
2023/07/21 03:45:39;;;;;;;20.40;4.20;;;;;;;14.90;100.00;98531.02;136180;1275;22641;-81
2023/07/21 03:48:42;;;;;;;7.30;3.60;;;;;;;14.88;100.00;98531.74;136104;1274;22590;-81
2023/07/21 03:51:45;;;;;;;10.10;3.60;;;;;;;14.96;100.00;98533.77;136085;1274;22677;-82
2023/07/21 03:54:47;;;;;;;6.40;3.70;;;;;;;15.15;100.00;98534.77;136315;1270;22573;-82
2023/07/21 03:57:52;;;;;;;7.40;3.90;;;;;;;15.26;100.00;98536.75;136242;1275;23005;-82
2023/07/21 04:00:55;;;;;;;7.50;4.90;;;;;;;15.33;100.00;98537.90;136330;1275;22641;-82
2023/07/21 04:03:57;;;;;;;7.50;3.50;;;;;;;15.40;100.00;98542.54;136353;1274;22650;-82
2023/07/21 04:07:01;;;;;;;44.70;9.60;;;;;;;15.48;100.00;98542.10;136232;1268;22674;-82
2023/07/21 04:10:05;;;;;;;10.50;4.00;;;;;;;15.57;100.00;98549.02;136259;1264;22896;-81
2023/07/21 04:13:09;;;;;;;7.40;3.90;;;;;;;15.68;100.00;98547.16;136872;1275;23395;-82
2023/07/21 04:16:11;;;;;;;18.00;4.50;;;;;;;15.79;100.00;98546.30;136690;1275;22544;-82
2023/07/21 04:19:14;;;;;;;13.60;5.70;;;;;;;15.94;100.00;98547.14;136431;1275;22561;-82
2023/07/21 04:22:17;;;;;;;11.40;5.00;;;;;;;16.07;100.00;98547.30;136234;1275;22589;-81
2023/07/21 04:25:20;;;;;;;11.50;5.20;;;;;;;16.18;100.00;98543.45;136143;1275;22614;-82
2023/07/21 04:28:23;;;;;;;68.20;8.30;;;;;;;16.29;100.00;98542.77;135955;1273;22575;-82
2023/07/21 04:31:28;;;;;;;10.10;4.80;;;;;;;16.39;100.00;98546.11;136114;1274;22565;-81
2023/07/21 04:34:31;;;;;;;34.60;8.10;;;;;;;16.51;100.00;98544.16;136054;1275;22907;-80
2023/07/21 04:37:34;;;;;;;14.90;6.00;;;;;;;16.68;100.00;98544.27;135154;1274;22765;-82
2023/07/21 04:40:36;;;;;;;16.90;7.30;;;;;;;16.81;100.00;98543.86;136001;1274;22549;-81
2023/07/21 04:43:39;;;;;;;28.00;7.10;;;;;;;16.97;100.00;98548.33;135962;1275;22634;-81
2023/07/21 04:46:41;;;;;;;74.10;10.10;;;;;;;17.08;100.00;98547.76;135997;1274;22533;-83
2023/07/21 04:49:44;;;;;;;53.50;7.80;;;;;;;17.27;100.00;98541.05;136170;1274;22559;-83
2023/07/21 04:52:47;;;;;;;22.30;7.40;;;;;;;17.42;100.00;98538.16;136170;1274;22569;-83
2023/07/21 04:55:49;;;;;;;25.90;8.20;;;;;;;17.56;100.00;98533.46;136225;1274;24902;-82
2023/07/21 04:58:52;;;;;;;19.40;7.00;;;;;;;17.71;100.00;98536.68;136486;1274;22569;-82
2023/07/21 05:01:54;;;;;;;32.60;9.30;;;;;;;17.85;100.00;98534.44;136533;1274;22708;-81
2023/07/21 05:04:58;;;;;;;24.30;8.00;;;;;;;18.13;100.00;98531.16;136649;1274;22573;-84
2023/07/21 05:08:01;;;;;;;116.50;14.00;;;;;;;18.44;100.00;98530.79;136501;1274;22525;-84
2023/07/21 05:11:04;;;;;;;11.50;8.10;;;;;;;18.69;100.00;98531.95;136181;1274;22561;-83
2023/07/21 05:14:06;;;;;;;16.80;7.90;;;;;;;18.83;100.00;98534.42;136020;1274;22586;-82
2023/07/21 05:17:09;;;;;;;42.30;8.80;;;;;;;18.85;100.00;98532.07;136124;1275;22595;-86
2023/07/21 05:20:13;;;;;;;14.20;6.90;;;;;;;18.95;100.00;98531.43;136178;1274;22570;-85
2023/07/21 05:23:16;;;;;;;9.00;6.70;;;;;;;19.09;100.00;98533.57;136168;1274;22577;-85
2023/07/21 05:26:19;;;;;;;7.50;6.10;;;;;;;19.21;100.00;98540.46;136357;1274;22557;-84
2023/07/21 05:29:22;;;;;;;9.10;6.90;;;;;;;19.39;100.00;98537.66;136304;1274;22582;-85
2023/07/21 05:32:24;;;;;;;9.20;6.80;;;;;;;19.51;100.00;98543.49;136203;1274;22572;-83
2023/07/21 05:35:28;;;;;;;11.10;6.30;;;;;;;19.61;100.00;98547.10;136219;1274;22556;-81
2023/07/21 05:38:32;;;;;;;9.50;7.30;;;;;;;19.66;100.00;98548.90;136168;1275;22539;-82
2023/07/21 05:41:34;;;;;;;10.90;7.10;;;;;;;19.61;100.00;98548.70;135954;1274;22604;-82
2023/07/21 05:44:40;;;;;;;14.80;7.20;;;;;;;19.51;100.00;98551.63;135936;1274;24326;-82
2023/07/21 05:47:43;;;;;;;10.80;7.70;;;;;;;19.36;100.00;98550.08;136008;1264;22547;-83
2023/07/21 05:50:45;;;;;;;11.70;6.90;;;;;;;19.43;100.00;98555.57;136097;1274;23199;-81
2023/07/21 05:53:48;;;;;;;10.90;7.20;;;;;;;19.43;100.00;98551.14;136235;1274;22588;-82
2023/07/21 05:56:52;;;;;;;11.20;7.20;;;;;;;19.50;100.00;98547.95;136131;1274;22677;-83
2023/07/21 05:59:55;;;;;;;8.80;6.70;;;;;;;19.64;100.00;98546.48;136129;1275;22547;-82
2023/07/21 06:02:58;;;;;;;8.40;6.50;;;;;;;19.87;100.00;98549.00;136174;1274;22554;-82
2023/07/21 06:06:01;;;;;;;7.30;5.80;;;;;;;19.98;100.00;98549.02;136472;1274;23050;-79
2023/07/21 06:09:04;;;;;;;11.60;6.30;;;;;;;20.17;100.00;98546.67;134995;1275;22561;-81
2023/07/21 06:12:07;;;;;;;9.50;5.50;;;;;;;20.36;100.00;98547.50;136517;1275;22615;-80
2023/07/21 06:15:09;;;;;;;45.30;7.80;;;;;;;20.52;100.00;98550.34;136456;1275;22916;-78
2023/07/21 06:18:12;;;;;;;45.60;8.20;;;;;;;20.67;100.00;98550.20;135366;1274;22600;-80
2023/07/21 06:21:14;;;;;;;22.80;6.70;;;;;;;20.86;100.00;98550.98;135226;1274;23188;-82
2023/07/21 06:24:18;;;;;;;9.20;7.10;;;;;;;21.01;100.00;98548.89;136365;1275;25434;-81
2023/07/21 06:27:21;;;;;;;6.30;5.40;;;;;;;21.14;100.00;98549.14;136130;1274;22589;-80
2023/07/21 06:30:23;;;;;;;7.90;5.40;;;;;;;21.20;100.00;98553.69;135129;1274;25168;-79
2023/07/21 06:33:26;;;;;;;6.90;5.20;;;;;;;21.17;100.00;98557.88;135233;1274;22531;-80
2023/07/21 06:36:28;;;;;;;24.60;6.30;;;;;;;21.21;100.00;98560.23;135142;1274;26141;-80
2023/07/21 06:39:31;;;;;;;6.70;5.30;;;;;;;21.37;100.00;98560.36;135184;1274;23636;-79
2023/07/21 06:42:33;;;;;;;5.70;5.10;;;;;;;21.42;100.00;98563.39;135121;1274;25315;-79
2023/07/21 06:45:39;;;;;;;5.40;4.60;;;;;;;21.43;100.00;98560.14;135222;1274;22562;-79
2023/07/21 06:48:42;;;;;;;12.00;4.80;;;;;;;21.58;100.00;98560.65;135118;1274;22653;-80
2023/07/21 06:51:44;;;;;;;7.00;4.70;;;;;;;21.74;100.00;98554.42;134980;1275;22527;-76
2023/07/21 06:54:47;;;;;;;6.90;4.70;;;;;;;21.85;100.00;98559.70;134984;1274;22613;-80
2023/07/21 06:57:49;;;;;;;5.90;5.10;;;;;;;21.84;100.00;98564.13;135169;1274;24181;-79
2023/07/21 07:00:53;;;;;;;7.10;4.80;;;;;;;21.91;100.00;98565.45;135054;1274;22602;-78
2023/07/21 07:03:56;;;;;;;;;;;;;;;22.08;100.00;98565.73;134995;1274;22499;-83
2023/07/21 07:06:59;;;;;;;8.30;5.00;;;;;;;22.06;100.00;98565.30;136238;1275;23426;-80
2023/07/21 07:10:01;;;;;;;35.40;6.90;;;;;;;22.08;100.00;98566.10;136270;1274;22530;-80
2023/07/21 07:13:04;;;;;;;9.00;5.50;;;;;;;22.17;100.00;98561.27;134970;1274;22548;-82
2023/07/21 07:16:06;;;;;;;6.70;4.80;;;;;;;22.24;100.00;98567.75;136443;1274;22918;-82
2023/07/21 07:19:09;;;;;;;7.50;4.50;;;;;;;22.36;100.00;98574.70;136241;1274;22514;-81
2023/07/21 07:22:12;;;;;;;6.80;4.50;;;;;;;22.53;100.00;98569.09;136422;1274;23297;-80
2023/07/21 07:25:15;;;;;;;;;;;;;;;22.65;100.00;98571.25;136521;1274;22561;-80
2023/07/21 07:28:18;;;;;;;68.00;9.30;;;;;;;22.67;100.00;98569.59;136506;1274;22623;-79
2023/07/21 07:31:20;;;;;;;12.90;5.90;;;;;;;22.75;100.00;98571.37;135556;1274;22550;-79
2023/07/21 07:34:23;;;;;;;7.70;5.20;;;;;;;22.87;100.00;98571.08;135324;1274;22584;-80
2023/07/21 07:37:25;;;;;;;8.80;4.90;;;;;;;22.89;100.00;98573.48;135281;1275;26015;-77
2023/07/21 07:40:28;;;;;;;5.90;4.20;;;;;;;22.99;100.00;98574.46;135045;1274;22560;-78
2023/07/21 07:43:32;;;;;;;7.30;3.80;;;;;;;23.45;84.71;98570.88;135296;1274;25940;-80
2023/07/21 07:46:34;;;;;;;38.80;15.80;;;;;;;23.60;60.69;98571.52;135352;1274;22573;-78
2023/07/21 07:49:37;;;;;;;6.50;4.90;;;;;;;24.00;60.37;98570.19;135151;1274;22665;-80
2023/07/21 07:52:42;;;;;;;6.10;4.50;;;;;;;24.34;58.68;98566.65;134925;1275;23272;-78
2023/07/21 07:55:45;;;;;;;10.80;4.60;;;;;;;24.27;57.85;98570.16;135673;1275;24183;-78
2023/07/21 07:58:48;;;;;;;11.80;4.70;;;;;;;24.28;57.72;98567.44;135520;1274;22544;-78
2023/07/21 08:01:50;;;;;;;5.30;4.30;;;;;;;24.44;57.52;98570.61;135183;1274;22771;-81
2023/07/21 08:04:53;;;;;;;5.80;4.00;;;;;;;24.69;56.91;98568.13;135086;1274;23290;-81
2023/07/21 08:07:58;;;;;;;4.70;3.70;;;;;;;24.78;55.99;98565.89;135170;1274;24891;-81
2023/07/21 08:11:01;;;;;;;3.80;3.50;;;;;;;24.75;55.87;98567.08;136097;1275;22673;-83
2023/07/21 08:14:03;;;;;;;7.60;3.50;;;;;;;24.76;55.22;98567.59;136031;1274;22642;-83
2023/07/21 08:17:06;;;;;;;4.30;3.70;;;;;;;24.83;55.31;98564.77;136099;1275;22530;-81
2023/07/21 08:20:09;;;;;;;13.70;4.30;;;;;;;25.19;55.07;98561.92;136218;1274;22564;-82
2023/07/21 08:23:12;;;;;;;47.00;7.30;;;;;;;25.46;54.69;98563.71;136194;1274;22555;-82
2023/07/21 08:26:14;;;;;;;8.90;4.20;;;;;;;25.61;54.16;98561.98;136235;1275;23199;-82
2023/07/21 08:29:17;;;;;;;8.90;4.10;;;;;;;25.69;53.87;98556.79;136143;1274;22627;-81
2023/07/21 08:32:19;;;;;;;8.80;3.80;;;;;;;25.68;53.70;98555.23;136378;1260;22991;-81
2023/07/21 08:35:22;;;;;;;9.50;4.30;;;;;;;25.65;53.67;98560.18;136352;1275;22571;-82
2023/07/21 08:38:24;;;;;;;5.10;3.50;;;;;;;25.56;53.78;98560.48;136809;1274;22222;-79
2023/07/21 08:41:29;;;;;;;10.20;4.40;;;;;;;25.44;53.26;98561.11;137053;1274;22533;-80
2023/07/21 08:44:32;;;;;;;4.30;3.70;;;;;;;25.22;53.12;98563.91;137326;1274;26092;-80
2023/07/21 08:47:35;;;;;;;115.10;12.90;;;;;;;25.07;53.63;98561.95;137372;1274;22565;-80
2023/07/21 08:50:37;;;;;;;5.90;4.00;;;;;;;25.13;53.93;98558.63;137175;1275;22566;-81
2023/07/21 08:53:40;;;;;;;4.70;4.30;;;;;;;25.03;53.06;98551.63;137107;1274;22557;-81
2023/07/21 08:56:42;;;;;;;12.10;5.30;;;;;;;24.84;53.45;98554.77;137045;1274;22204;-79
2023/07/21 08:59:45;;;;;;;5.40;3.90;;;;;;;24.68;53.17;98554.30;136248;1274;25331;-79
2023/07/21 09:02:47;;;;;;;5.70;4.50;;;;;;;24.71;53.60;98551.13;135630;1274;21827;-81
2023/07/21 09:05:50;;;;;;;8.00;3.90;;;;;;;24.91;53.25;98552.63;135186;1275;22555;-81
2023/07/21 09:08:53;;;;;;;4.10;3.70;;;;;;;25.03;53.01;98551.86;135223;1274;25701;-80
2023/07/21 09:11:56;;;;;;;7.30;4.00;;;;;;;25.19;52.25;98548.34;136217;1274;23363;-81
2023/07/21 09:15:03;;;;;;;6.50;3.80;;;;;;;25.46;51.98;98544.81;136270;1274;26019;-82
2023/07/21 09:18:07;;;;;;;4.40;3.40;;;;;;;25.79;51.25;98542.67;136287;1266;23172;-80
2023/07/21 09:21:09;;;;;;;4.50;3.40;;;;;;;25.84;50.52;98544.03;136207;1274;22575;-80
2023/07/21 09:24:12;;;;;;;13.90;3.90;;;;;;;25.72;50.69;98545.38;136166;1269;22524;-80
2023/07/21 09:27:16;;;;;;;4.10;3.70;;;;;;;26.00;51.19;98549.41;136177;1260;22593;-81
2023/07/21 09:30:19;;;;;;;5.50;3.30;;;;;;;26.15;51.11;98548.74;136431;1274;22573;-82
2023/07/21 09:33:21;;;;;;;6.50;3.80;;;;;;;26.38;50.66;98544.64;136516;1274;22951;-80
2023/07/21 09:36:24;;;;;;;4.00;3.60;;;;;;;26.63;49.74;98542.25;136290;1274;22532;-81
2023/07/21 09:39:27;;;;;;;7.80;4.80;;;;;;;26.72;49.19;98537.66;136518;1274;23049;-80
2023/07/21 09:42:30;;;;;;;10.30;6.40;;;;;;;26.49;48.50;98537.20;136416;1272;22546;-82
2023/07/21 09:45:32;;;;;;;36.20;17.50;;;;;;;26.26;47.50;98530.49;136341;1274;22596;-81
2023/07/21 09:48:35;;;;;;;9.80;6.80;;;;;;;26.46;47.67;98531.64;136267;1275;22662;-81
2023/07/21 09:51:39;;;;;;;17.50;7.50;;;;;;;27.05;46.63;98533.21;136229;1274;22573;-80
2023/07/21 09:54:43;;;;;;;11.70;7.10;;;;;;;27.43;45.65;98527.54;136173;1274;22567;-82
2023/07/21 09:57:47;;;;;;;7.80;6.50;;;;;;;27.58;45.16;98529.99;136191;1274;22581;-81
2023/07/21 10:00:49;;;;;;;11.50;7.00;;;;;;;27.66;45.11;98537.89;136289;1274;22561;-80
2023/07/21 10:03:52;;;;;;;93.10;12.00;;;;;;;27.67;44.26;98538.20;136501;1274;22530;-80
2023/07/21 10:06:58;;;;;;;33.00;11.90;;;;;;;27.65;44.20;98545.33;136517;1275;25093;-81
2023/07/21 10:10:05;;;;;;;19.90;9.10;;;;;;;27.67;44.67;98545.55;136450;1274;22672;-81
2023/07/21 10:13:11;;;;;;;8.40;5.80;;;;;;;27.77;43.89;98544.02;136454;1274;25411;-80
2023/07/21 10:16:14;;;;;;;9.30;6.60;;;;;;;27.58;43.24;98546.10;136367;1274;22576;-80
2023/07/21 10:19:22;;;;;;;5.90;4.70;;;;;;;27.23;43.08;98551.96;136360;1274;22533;-80
2023/07/21 10:22:27;;;;;;;7.70;3.60;;;;;;;26.91;43.32;98553.19;136115;1274;25906;-83
2023/07/21 10:25:30;;;;;;;22.80;5.40;;;;;;;26.85;44.42;98546.88;135994;1274;22560;-81
2023/07/21 10:28:32;;;;;;;32.70;5.40;;;;;;;27.03;44.77;98551.91;136013;1272;22526;-79
2023/07/21 10:31:39;;;;;;;134.50;14.00;;;;;;;27.45;45.44;98547.95;136343;1272;22530;-80
2023/07/21 10:34:42;;;;;;;7.20;3.20;;;;;;;27.93;44.87;98546.83;136172;1274;22534;-80
2023/07/21 10:37:52;;;;;;;5.20;2.90;;;;;;;28.05;44.61;98546.18;136081;1274;22562;-82
2023/07/21 10:41:06;;;;;;;18.20;4.20;;;;;;;27.92;44.34;98545.60;136087;1274;24491;-81
2023/07/21 10:44:09;;;;;;;13.40;3.50;;;;;;;27.76;45.01;98544.42;136063;1274;23019;-83
2023/07/21 10:47:12;;;;;;;8.50;3.50;;;;;;;27.41;44.99;98545.31;136323;1274;22531;-80
2023/07/21 10:50:14;;;;;;;28.00;11.60;;;;;;;26.86;45.36;98543.77;136139;1274;22592;-81
2023/07/21 10:53:17;;;;;;;3.90;3.20;;;;;;;26.21;46.59;98543.77;136138;1274;22537;-81
2023/07/21 10:56:21;;;;;;;9.60;4.20;;;;;;;25.67;47.89;98540.50;136292;1274;24196;-79
2023/07/21 10:59:24;;;;;;;12.00;4.40;;;;;;;25.31;49.55;98539.88;136490;1274;22557;-81
2023/07/21 11:02:27;;;;;;;6.70;3.40;;;;;;;25.00;50.42;98541.46;136171;1274;22606;-81
2023/07/21 11:05:29;;;;;;;5.80;3.20;;;;;;;24.69;50.46;98545.14;136016;1274;23042;-81
2023/07/21 11:08:32;;;;;;;5.90;3.60;;;;;;;24.68;50.79;98542.38;135850;1275;22789;-80
2023/07/21 11:11:35;;;;;;;11.30;3.40;;;;;;;24.84;49.60;98540.31;136017;1275;22568;-80
2023/07/21 11:14:37;;;;;;;6.80;2.80;;;;;;;24.91;49.49;98536.75;135481;1274;22533;-81
2023/07/21 11:17:41;;;;;;;78.60;7.70;;;;;;;24.87;50.17;98533.77;136079;1274;22542;-81
2023/07/21 11:20:44;;;;;;;6.30;2.80;;;;;;;24.85;50.61;98537.80;136122;1271;22852;-82
2023/07/21 11:23:46;;;;;;;12.70;3.40;;;;;;;24.60;50.73;98533.52;136236;1274;22533;-81
2023/07/21 11:26:50;;;;;;;;;;;;;;;24.38;51.03;98525.56;136400;1274;22532;-81
2023/07/21 11:29:55;;;;;;;28.60;4.30;;;;;;;24.21;51.18;98520.98;136314;1274;181462;-81
2023/07/21 11:32:57;;;;;;;11.60;3.50;;;;;;;23.96;51.29;98524.52;136861;1274;22550;-81
2023/07/21 11:36:00;;;;;;;4.50;2.60;;;;;;;23.84;50.95;98520.65;136894;1274;22119;-81
2023/07/21 11:39:04;;;;;;;15.50;3.00;;;;;;;23.96;50.83;98517.05;137126;1274;22550;-81
2023/07/21 11:42:12;;;;;;;7.60;2.60;;;;;;;24.31;50.49;98515.40;137106;1274;22577;-80
2023/07/21 11:45:15;;;;;;;5.90;2.60;;;;;;;24.68;50.10;98508.23;136958;1275;22754;-82
2023/07/21 11:48:17;;;;;;;7.70;3.00;;;;;;;25.56;48.91;98497.05;136374;1274;22583;-79
2023/07/21 11:51:22;;;;;;;13.70;3.90;;;;;;;26.43;47.06;98492.73;134987;1275;23115;-82
2023/07/21 11:54:24;;;;;;;5.60;2.80;;;;;;;26.98;45.94;98493.13;136228;1274;22614;-81
2023/07/21 11:57:30;;;;;;;5.80;2.70;;;;;;;27.35;44.69;98487.78;136258;1275;22505;-79
2023/07/21 12:00:32;;;;;;;10.90;3.50;;;;;;;27.57;43.86;98482.85;136730;1274;22561;-77
2023/07/21 12:03:35;;;;;;;2.90;2.50;;;;;;;27.54;42.62;98477.19;136145;1274;22466;-80
2023/07/21 12:06:38;;;;;;;49.90;5.00;;;;;;;27.50;42.78;98475.65;136160;1274;23039;-80
2023/07/21 12:09:41;;;;;;;4.10;2.60;;;;;;;27.77;42.03;98471.61;136904;1275;24221;-79
2023/07/21 12:12:43;;;;;;;7.30;2.80;;;;;;;27.71;41.95;98472.34;137142;1274;23098;-78
2023/07/21 12:15:46;;;;;;;7.90;3.60;;;;;;;27.78;42.06;98464.06;136007;1275;23821;-78
2023/07/21 12:18:48;;;;;;;23.60;3.90;;;;;;;27.84;41.88;98460.63;135341;1275;23009;-77
2023/07/21 12:21:52;;;;;;;2.40;2.20;;;;;;;27.80;41.22;98463.42;135421;1274;22825;-77
2023/07/21 12:24:55;;;;;;;3.10;2.60;;;;;;;27.69;40.41;98455.16;135432;1274;22537;-78
2023/07/21 12:27:57;;;;;;;2.80;2.20;;;;;;;27.64;39.85;98456.22;134638;1275;23576;-78
2023/07/21 12:31:00;;;;;;;3.60;2.20;;;;;;;27.46;39.50;98453.70;134612;1275;22550;-78
2023/07/21 12:34:04;;;;;;;;;;;;;;;27.46;39.85;98454.44;134710;1275;22893;-78
2023/07/21 12:37:07;;;;;;;2.60;2.40;;;;;;;27.57;39.46;98453.36;134749;1274;22567;-78
2023/07/21 12:40:13;;;;;;;4.00;2.20;;;;;;;27.49;39.80;98452.85;134756;1275;23027;-78
2023/07/21 12:43:15;;;;;;;2.70;2.30;;;;;;;27.61;39.74;98451.36;134677;1274;22543;-78
2023/07/21 12:46:18;;;;;;;4.60;2.40;;;;;;;27.91;39.09;98445.52;134815;1274;22556;-78
2023/07/21 12:49:20;;;;;;;10.40;2.60;;;;;;;27.95;39.31;98441.66;134735;1275;23560;-77
2023/07/21 12:52:23;;;;;;;14.90;3.70;;;;;;;28.00;38.93;98449.78;135066;1275;23387;-78
2023/07/21 12:55:25;;;;;;;2.80;2.10;;;;;;;28.21;38.49;98448.54;134847;1274;23122;-78
2023/07/21 12:58:28;;;;;;;2.60;2.40;;;;;;;28.44;38.51;98444.02;134883;1263;22553;-79
2023/07/21 13:01:31;;;;;;;2.50;2.20;;;;;;;28.46;37.96;98446.17;134891;1275;25233;-79
2023/07/21 13:04:34;;;;;;;5.20;2.50;;;;;;;28.34;37.96;98449.50;135042;1274;26063;-80
2023/07/21 13:07:38;;;;;;;11.20;3.10;;;;;;;28.00;39.12;98447.41;135015;1266;22908;-80
2023/07/21 13:10:40;;;;;;;4.80;2.40;;;;;;;27.81;39.07;98455.11;135036;1275;22596;-80
2023/07/21 13:13:47;;;;;;;10.80;2.70;;;;;;;27.50;37.34;98456.33;134948;1274;22659;-80
2023/07/21 13:16:50;;;;;;;5.60;2.40;;;;;;;27.11;36.25;98451.42;134971;1274;22738;-79
2023/07/21 13:19:52;;;;;;;3.50;1.90;;;;;;;26.85;35.86;98442.42;135026;1274;22539;-79
2023/07/21 13:22:54;;;;;;;2.20;2.10;;;;;;;26.58;35.39;98438.55;134989;1274;22567;-82
2023/07/21 13:25:57;;;;;;;1.70;1.60;;;;;;;26.48;35.58;98434.87;136664;1274;22728;-79
2023/07/21 13:28:59;;;;;;;5.20;2.50;;;;;;;26.56;35.33;98443.46;134951;1274;22533;-81
2023/07/21 13:32:02;;;;;;;7.60;2.30;;;;;;;26.89;35.37;98443.30;134915;1274;22869;-82
2023/07/21 13:35:04;;;;;;;2.60;1.90;;;;;;;27.05;35.16;98443.94;136531;1275;26031;-80
2023/07/21 13:38:07;;;;;;;6.60;2.20;;;;;;;26.99;36.07;98456.32;135142;1274;22567;-79
2023/07/21 13:41:10;;;;;;;3.40;2.00;;;;;;;26.97;36.99;98456.94;135322;1251;22783;-80
2023/07/21 13:44:13;;;;;;;;;;;;;;;26.91;37.48;98454.42;135527;1275;23571;-81
2023/07/21 13:47:16;;;;;;;2.00;1.90;;;;;;;26.97;37.82;98452.09;135543;1274;22661;-81
2023/07/21 13:50:18;;;;;;;;;;;;;;;27.14;37.84;98441.58;135571;1271;22549;-81
2023/07/21 13:53:33;;;;;;;2.40;2.00;;;;;;;27.38;37.54;98437.64;135561;1275;22516;-80
2023/07/21 13:56:35;;;;;;;1.90;1.70;;;;;;;27.57;37.46;98433.19;135405;1274;22548;-81
2023/07/21 13:59:38;;;;;;;14.90;2.90;;;;;;;28.04;36.31;98431.60;135209;1275;22500;-80
2023/07/21 14:02:40;;;;;;;2.10;1.90;;;;;;;28.47;35.75;98432.53;136116;1275;22672;-80